<?xml version="1.0" encoding="UTF-8" standalone="no" ?>
<gpx xmlns="http://www.topografix.com/GPX/1/1" xmlns:xsi="http://www.w3.org/2001/XMLSchema-instance" xsi:schemaLocation="http://www.topografix.com/GPX/1/1 http://www.topografix.com/GPX/1/1/gpx.xsd" version="1.1" creator="VisuGPX - https://www.visugpx.com">
  <metadata>
    <name>De Us à Bréançon en boucle</name>
  </metadata>
  <trk>
    <name><![CDATA[14913664-De Us à Bréançon en boucle]]></name>
    <extensions>
      <line xmlns="http://www.topografix.com/GPX/gpx_style/0/2">
        <color>0000FF</color>
        <width>4</width>
      </line>
    </extensions>
    <trkseg>
      <trkpt lat="49.09961" lon="1.97087">
        <ele>50</ele>
        <time>2022-08-29T12:34:08Z</time>
      </trkpt>
      <trkpt lat="49.10097" lon="1.97018">
        <ele>49</ele>
        <time>2022-08-29T12:37:19Z</time>
      </trkpt>
      <trkpt lat="49.10123" lon="1.97054">
        <ele>50</ele>
        <time>2022-08-29T12:38:06Z</time>
      </trkpt>
      <trkpt lat="49.1012" lon="1.97122">
        <ele>49</ele>
        <time>2022-08-29T12:39:06Z</time>
      </trkpt>
      <trkpt lat="49.10088" lon="1.97197">
        <ele>47</ele>
        <time>2022-08-29T12:40:23Z</time>
      </trkpt>
      <trkpt lat="49.10089" lon="1.97231">
        <ele>47</ele>
        <time>2022-08-29T12:41:11Z</time>
      </trkpt>
      <trkpt lat="49.10071" lon="1.97304">
        <ele>48</ele>
      </trkpt>
      <trkpt lat="49.10084" lon="1.97329">
        <ele>48</ele>
      </trkpt>
      <trkpt lat="49.10064" lon="1.97399">
        <ele>46.9</ele>
        <time>2022-08-29T12:43:23Z</time>
      </trkpt>
      <trkpt lat="49.10009" lon="1.97588">
        <ele>51.6</ele>
        <time>2022-08-29T12:46:31Z</time>
      </trkpt>
      <trkpt lat="49.09891" lon="1.97673">
        <ele>57.5</ele>
      </trkpt>
      <trkpt lat="49.0977" lon="1.97756">
        <ele>62</ele>
        <time>2022-08-29T12:52:21Z</time>
      </trkpt>
      <trkpt lat="49.09748" lon="1.9776">
        <ele>62.4</ele>
      </trkpt>
      <trkpt lat="49.09725" lon="1.97752">
        <ele>62.1</ele>
        <time>2022-08-29T12:53:17Z</time>
      </trkpt>
      <trkpt lat="49.0976" lon="1.97835">
        <ele>68</ele>
        <time>2022-08-29T12:54:38Z</time>
      </trkpt>
      <trkpt lat="49.09805" lon="1.97909">
        <ele>73</ele>
        <time>2022-08-29T12:56:07Z</time>
      </trkpt>
      <trkpt lat="49.09856" lon="1.97949">
        <ele>79.2</ele>
        <time>2022-08-29T12:57:26Z</time>
      </trkpt>
      <trkpt lat="49.09934" lon="1.97934">
        <ele>78</ele>
        <time>2022-08-29T12:59:08Z</time>
      </trkpt>
      <trkpt lat="49.09974" lon="1.97922">
        <ele>81.2</ele>
      </trkpt>
      <trkpt lat="49.10014" lon="1.97901">
        <ele>79</ele>
        <time>2022-08-29T13:00:59Z</time>
      </trkpt>
      <trkpt lat="49.10091" lon="1.97867">
        <ele>83.1</ele>
      </trkpt>
      <trkpt lat="49.10132" lon="1.97856">
        <ele>81</ele>
        <time>2022-08-29T13:03:41Z</time>
      </trkpt>
      <trkpt lat="49.10176" lon="1.97872">
        <ele>84</ele>
        <time>2022-08-29T13:04:41Z</time>
      </trkpt>
      <trkpt lat="49.10275" lon="1.97944">
        <ele>92</ele>
      </trkpt>
      <trkpt lat="49.10298" lon="1.97976">
        <ele>93.4</ele>
        <time>2022-08-29T13:07:49Z</time>
      </trkpt>
      <trkpt lat="49.10315" lon="1.98016">
        <ele>94.2</ele>
      </trkpt>
      <trkpt lat="49.10326" lon="1.98062">
        <ele>98</ele>
        <time>2022-08-29T13:09:15Z</time>
      </trkpt>
      <trkpt lat="49.10372" lon="1.98265">
        <ele>106</ele>
        <time>2022-08-29T13:12:22Z</time>
      </trkpt>
      <trkpt lat="49.10395" lon="1.98434">
        <ele>104</ele>
        <time>2022-08-29T13:15:04Z</time>
      </trkpt>
      <trkpt lat="49.10414" lon="1.98466">
        <ele>104.8</ele>
      </trkpt>
      <trkpt lat="49.10702" lon="1.9879">
        <ele>108</ele>
        <time>2022-08-29T13:23:25Z</time>
      </trkpt>
      <trkpt lat="49.10738" lon="1.98806">
        <ele>108</ele>
        <time>2022-08-29T13:24:15Z</time>
      </trkpt>
      <trkpt lat="49.10778" lon="1.98776">
        <ele>108</ele>
        <time>2022-08-29T13:25:15Z</time>
      </trkpt>
      <trkpt lat="49.10819" lon="1.9873">
        <ele>104.8</ele>
        <time>2022-08-29T13:26:37Z</time>
      </trkpt>
      <trkpt lat="49.10942" lon="1.98595">
        <ele>99.3</ele>
        <time>2022-08-29T13:30:02Z</time>
      </trkpt>
      <trkpt lat="49.11009" lon="1.98136">
        <ele>97</ele>
        <time>2022-08-29T13:32:38Z</time>
      </trkpt>
      <trkpt lat="49.11062" lon="1.97973">
        <ele>92.8</ele>
        <time>2022-08-29T13:34:41Z</time>
      </trkpt>
      <trkpt lat="49.1106" lon="1.97767">
        <ele>88.1</ele>
        <time>2022-08-29T13:35:45Z</time>
      </trkpt>
      <trkpt lat="49.1129" lon="1.9805">
        <ele>95.6</ele>
        <time>2022-08-29T13:37:14Z</time>
      </trkpt>
      <trkpt lat="49.11543" lon="1.98218">
        <ele>102.1</ele>
        <time>2022-08-29T13:39:22Z</time>
      </trkpt>
      <trkpt lat="49.11712" lon="1.98183">
        <ele>107.6</ele>
        <time>2022-08-29T13:40:59Z</time>
      </trkpt>
      <trkpt lat="49.12077" lon="1.99149">
        <ele>121.3</ele>
      </trkpt>
      <trkpt lat="49.11855" lon="1.9932">
        <ele>118.3</ele>
      </trkpt>
      <trkpt lat="49.11689" lon="1.99458">
        <ele>119.7</ele>
      </trkpt>
      <trkpt lat="49.11494" lon="1.99833">
        <ele>120.8</ele>
        <time>2022-08-29T13:48:41Z</time>
      </trkpt>
      <trkpt lat="49.11458" lon="1.99883">
        <ele>118</ele>
        <time>2022-08-29T13:49:44Z</time>
      </trkpt>
      <trkpt lat="49.11423" lon="1.99955">
        <ele>120</ele>
        <time>2022-08-29T13:51:02Z</time>
      </trkpt>
      <trkpt lat="49.1139" lon="1.99975">
        <ele>120</ele>
        <time>2022-08-29T13:51:49Z</time>
      </trkpt>
      <trkpt lat="49.11382" lon="2.00009">
        <ele>120</ele>
        <time>2022-08-29T13:52:21Z</time>
      </trkpt>
      <trkpt lat="49.11375" lon="2.00042">
        <ele>120</ele>
        <time>2022-08-29T13:52:51Z</time>
      </trkpt>
      <trkpt lat="49.1135" lon="2.00099">
        <ele>121.6</ele>
      </trkpt>
      <trkpt lat="49.11322" lon="2.00157">
        <ele>119.3</ele>
        <time>2022-08-29T13:54:54Z</time>
      </trkpt>
      <trkpt lat="49.11304" lon="2.00238">
        <ele>116</ele>
        <time>2022-08-29T13:56:09Z</time>
      </trkpt>
      <trkpt lat="49.11288" lon="2.00358">
        <ele>114.2</ele>
        <time>2022-08-29T13:57:52Z</time>
      </trkpt>
      <trkpt lat="49.11279" lon="2.00485">
        <ele>111</ele>
        <time>2022-08-29T13:59:48Z</time>
      </trkpt>
      <trkpt lat="49.11266" lon="2.00576">
        <ele>109</ele>
        <time>2022-08-29T14:01:10Z</time>
      </trkpt>
      <trkpt lat="49.11235" lon="2.00752">
        <ele>106</ele>
        <time>2022-08-29T14:03:49Z</time>
      </trkpt>
      <trkpt lat="49.11214" lon="2.00823">
        <ele>106</ele>
        <time>2022-08-29T14:04:57Z</time>
      </trkpt>
      <trkpt lat="49.11183" lon="2.00885">
        <ele>108</ele>
        <time>2022-08-29T14:06:05Z</time>
      </trkpt>
      <trkpt lat="49.11217" lon="2.00951">
        <ele>110.2</ele>
      </trkpt>
      <trkpt lat="49.11299" lon="2.01209">
        <ele>119.9</ele>
      </trkpt>
      <trkpt lat="49.1128" lon="2.01287">
        <ele>122</ele>
        <time>2022-08-29T14:12:43Z</time>
      </trkpt>
      <trkpt lat="49.11293" lon="2.01304">
        <ele>123</ele>
        <time>2022-08-29T14:13:06Z</time>
      </trkpt>
      <trkpt lat="49.11313" lon="2.01336">
        <ele>125</ele>
        <time>2022-08-29T14:13:44Z</time>
      </trkpt>
      <trkpt lat="49.11376" lon="2.01425">
        <ele>131</ele>
        <time>2022-08-29T14:15:39Z</time>
      </trkpt>
      <trkpt lat="49.11434" lon="2.01542">
        <ele>138</ele>
        <time>2022-08-29T14:17:47Z</time>
      </trkpt>
      <trkpt lat="49.11443" lon="2.01577">
        <ele>140</ele>
        <time>2022-08-29T14:18:20Z</time>
      </trkpt>
      <trkpt lat="49.11502" lon="2.01473">
        <ele>137</ele>
        <time>2022-08-29T14:20:20Z</time>
      </trkpt>
      <trkpt lat="49.11522" lon="2.01452">
        <ele>135</ele>
        <time>2022-08-29T14:20:52Z</time>
      </trkpt>
      <trkpt lat="49.11574" lon="2.01484">
        <ele>139</ele>
        <time>2022-08-29T14:22:07Z</time>
      </trkpt>
      <trkpt lat="49.11591" lon="2.01508">
        <ele>142</ele>
        <time>2022-08-29T14:22:36Z</time>
      </trkpt>
      <trkpt lat="49.11589" lon="2.01559">
        <ele>144</ele>
        <time>2022-08-29T14:23:19Z</time>
      </trkpt>
      <trkpt lat="49.11561" lon="2.01637">
        <ele>147</ele>
        <time>2022-08-29T14:24:36Z</time>
      </trkpt>
      <trkpt lat="49.11533" lon="2.01691">
        <ele>147</ele>
        <time>2022-08-29T14:25:36Z</time>
      </trkpt>
      <trkpt lat="49.11563" lon="2.0172">
        <ele>148</ele>
        <time>2022-08-29T14:26:24Z</time>
      </trkpt>
      <trkpt lat="49.11539" lon="2.01743">
        <ele>147</ele>
        <time>2022-08-29T14:27:02Z</time>
      </trkpt>
      <trkpt lat="49.11554" lon="2.01753">
        <ele>147</ele>
        <time>2022-08-29T14:27:24Z</time>
      </trkpt>
      <trkpt lat="49.11571" lon="2.0181">
        <ele>147</ele>
        <time>2022-08-29T14:28:18Z</time>
      </trkpt>
      <trkpt lat="49.11559" lon="2.01823">
        <ele>146.4</ele>
      </trkpt>
      <trkpt lat="49.11562" lon="2.01827">
        <ele>146.2</ele>
        <time>2022-08-29T14:28:40Z</time>
      </trkpt>
      <trkpt lat="49.11574" lon="2.01818">
        <ele>146.6</ele>
        <time>2022-08-29T14:29:00Z</time>
      </trkpt>
      <trkpt lat="49.11592" lon="2.01816">
        <ele>146.7</ele>
      </trkpt>
      <trkpt lat="49.11593" lon="2.01824">
        <ele>147</ele>
        <time>2022-08-29T14:29:22Z</time>
      </trkpt>
      <trkpt lat="49.11606" lon="2.01856">
        <ele>147</ele>
        <time>2022-08-29T14:29:55Z</time>
      </trkpt>
      <trkpt lat="49.11648" lon="2.01928">
        <ele>146</ele>
        <time>2022-08-29T14:31:19Z</time>
      </trkpt>
      <trkpt lat="49.11698" lon="2.02128">
        <ele>143</ele>
        <time>2022-08-29T14:34:26Z</time>
      </trkpt>
      <trkpt lat="49.1171" lon="2.02153">
        <ele>143</ele>
        <time>2022-08-29T14:34:53Z</time>
      </trkpt>
      <trkpt lat="49.1175" lon="2.0211">
        <ele>142</ele>
        <time>2022-08-29T14:35:58Z</time>
      </trkpt>
      <trkpt lat="49.1185" lon="2.01958">
        <ele>135.8</ele>
        <time>2022-08-29T14:39:05Z</time>
      </trkpt>
      <trkpt lat="49.11887" lon="2.01935">
        <ele>131</ele>
        <time>2022-08-29T14:40:01Z</time>
      </trkpt>
      <trkpt lat="49.11949" lon="2.01922">
        <ele>124</ele>
        <time>2022-08-29T14:41:25Z</time>
      </trkpt>
      <trkpt lat="49.11989" lon="2.01887">
        <ele>121</ele>
        <time>2022-08-29T14:42:26Z</time>
      </trkpt>
      <trkpt lat="49.12053" lon="2.01932">
        <ele>116</ele>
        <time>2022-08-29T14:44:00Z</time>
      </trkpt>
      <trkpt lat="49.12124" lon="2.02005">
        <ele>112</ele>
        <time>2022-08-29T14:45:55Z</time>
      </trkpt>
      <trkpt lat="49.12169" lon="2.02032">
        <ele>111</ele>
        <time>2022-08-29T14:46:59Z</time>
      </trkpt>
      <trkpt lat="49.12222" lon="2.02028">
        <ele>110</ele>
        <time>2022-08-29T14:48:10Z</time>
      </trkpt>
      <trkpt lat="49.12293" lon="2.02005">
        <ele>110</ele>
        <time>2022-08-29T14:49:47Z</time>
      </trkpt>
      <trkpt lat="49.1235" lon="2.01993">
        <ele>112.3</ele>
        <time>2022-08-29T14:51:05Z</time>
      </trkpt>
      <trkpt lat="49.12523" lon="2.01489">
        <ele>118.7</ele>
        <time>2022-08-29T14:59:26Z</time>
      </trkpt>
      <trkpt lat="49.12585" lon="2.01595">
        <ele>116</ele>
        <time>2022-08-29T15:01:35Z</time>
      </trkpt>
      <trkpt lat="49.12647" lon="2.01737">
        <ele>115</ele>
        <time>2022-08-29T15:04:04Z</time>
      </trkpt>
      <trkpt lat="49.12687" lon="2.01816">
        <ele>115</ele>
        <time>2022-08-29T15:05:31Z</time>
      </trkpt>
      <trkpt lat="49.12723" lon="2.01864">
        <ele>116.2</ele>
      </trkpt>
      <trkpt lat="49.12769" lon="2.01909">
        <ele>114</ele>
        <time>2022-08-29T15:07:48Z</time>
      </trkpt>
      <trkpt lat="49.12875" lon="2.02055">
        <ele>113</ele>
        <time>2022-08-29T15:10:58Z</time>
      </trkpt>
      <trkpt lat="49.12922" lon="2.0214">
        <ele>112.8</ele>
        <time>2022-08-29T15:12:37Z</time>
      </trkpt>
      <trkpt lat="49.12936" lon="2.02091">
        <ele>111</ele>
        <time>2022-08-29T15:13:28Z</time>
      </trkpt>
      <trkpt lat="49.13159" lon="2.01145">
        <ele>127.7</ele>
        <time>2022-08-29T15:28:02Z</time>
      </trkpt>
      <trkpt lat="49.13201" lon="2.01208">
        <ele>125</ele>
        <time>2022-08-29T15:29:19Z</time>
      </trkpt>
      <trkpt lat="49.13221" lon="2.01215">
        <ele>127</ele>
      </trkpt>
      <trkpt lat="49.13347" lon="2.0129">
        <ele>125</ele>
        <time>2022-08-29T15:32:47Z</time>
      </trkpt>
      <trkpt lat="49.13554" lon="2.00659">
        <ele>117</ele>
        <time>2022-08-29T15:43:02Z</time>
      </trkpt>
      <trkpt lat="49.1356" lon="2.00649">
        <ele>117</ele>
        <time>2022-08-29T15:43:30Z</time>
      </trkpt>
      <trkpt lat="49.13571" lon="2.00651">
        <ele>117</ele>
      </trkpt>
      <trkpt lat="49.13788" lon="2.00812">
        <ele>116</ele>
        <time>2022-08-29T15:48:54Z</time>
      </trkpt>
      <trkpt lat="49.13795" lon="2.00802">
        <ele>117.2</ele>
      </trkpt>
      <trkpt lat="49.13834" lon="2.00673">
        <ele>114</ele>
        <time>2022-08-29T15:51:13Z</time>
      </trkpt>
      <trkpt lat="49.13847" lon="2.00654">
        <ele>115</ele>
        <time>2022-08-29T15:51:35Z</time>
      </trkpt>
      <trkpt lat="49.13858" lon="2.00756">
        <ele>114.3</ele>
        <time>2022-08-29T15:53:07Z</time>
      </trkpt>
      <trkpt lat="49.13889" lon="2.00836">
        <ele>116</ele>
      </trkpt>
      <trkpt lat="49.13923" lon="2.00899">
        <ele>121</ele>
        <time>2022-08-29T15:55:39Z</time>
      </trkpt>
      <trkpt lat="49.13988" lon="2.01004">
        <ele>125</ele>
        <time>2022-08-29T15:57:45Z</time>
      </trkpt>
      <trkpt lat="49.13956" lon="2.01203">
        <ele>124</ele>
        <time>2022-08-29T16:00:44Z</time>
      </trkpt>
      <trkpt lat="49.13924" lon="2.01406">
        <ele>126.2</ele>
      </trkpt>
      <trkpt lat="49.13834" lon="2.01928">
        <ele>125</ele>
        <time>2022-08-29T16:11:38Z</time>
      </trkpt>
      <trkpt lat="49.1382" lon="2.02023">
        <ele>126</ele>
        <time>2022-08-29T16:13:03Z</time>
      </trkpt>
      <trkpt lat="49.13792" lon="2.02204">
        <ele>126</ele>
        <time>2022-08-29T16:15:45Z</time>
      </trkpt>
      <trkpt lat="49.13791" lon="2.02296">
        <ele>127</ele>
        <time>2022-08-29T16:17:05Z</time>
      </trkpt>
      <trkpt lat="49.13802" lon="2.02419">
        <ele>129.9</ele>
        <time>2022-08-29T16:18:55Z</time>
      </trkpt>
      <trkpt lat="49.1382" lon="2.02501">
        <ele>129</ele>
        <time>2022-08-29T16:20:10Z</time>
      </trkpt>
      <trkpt lat="49.13848" lon="2.02606">
        <ele>130</ele>
        <time>2022-08-29T16:21:49Z</time>
      </trkpt>
      <trkpt lat="49.13911" lon="2.02718">
        <ele>131</ele>
        <time>2022-08-29T16:23:58Z</time>
      </trkpt>
      <trkpt lat="49.1402" lon="2.02901">
        <ele>130</ele>
        <time>2022-08-29T16:27:34Z</time>
      </trkpt>
      <trkpt lat="49.14068" lon="2.02957">
        <ele>132.5</ele>
        <time>2022-08-29T16:28:54Z</time>
      </trkpt>
      <trkpt lat="49.14131" lon="2.02736">
        <ele>137</ele>
        <time>2022-08-29T16:32:03Z</time>
      </trkpt>
      <trkpt lat="49.14203" lon="2.02476">
        <ele>148</ele>
        <time>2022-08-29T16:36:10Z</time>
      </trkpt>
      <trkpt lat="49.14215" lon="2.02364">
        <ele>152</ele>
        <time>2022-08-29T16:37:49Z</time>
      </trkpt>
      <trkpt lat="49.1425" lon="2.023">
        <ele>153</ele>
        <time>2022-08-29T16:39:02Z</time>
      </trkpt>
      <trkpt lat="49.14261" lon="2.02229">
        <ele>154</ele>
        <time>2022-08-29T16:40:06Z</time>
      </trkpt>
      <trkpt lat="49.14256" lon="2.02176">
        <ele>155</ele>
        <time>2022-08-29T16:40:52Z</time>
      </trkpt>
      <trkpt lat="49.14278" lon="2.0216">
        <ele>153</ele>
        <time>2022-08-29T16:41:25Z</time>
      </trkpt>
      <trkpt lat="49.14325" lon="2.02094">
        <ele>151</ele>
        <time>2022-08-29T16:42:50Z</time>
      </trkpt>
      <trkpt lat="49.14371" lon="2.02058">
        <ele>148</ele>
        <time>2022-08-29T16:43:59Z</time>
      </trkpt>
      <trkpt lat="49.14388" lon="2.02035">
        <ele>144.9</ele>
        <time>2022-08-29T16:45:32Z</time>
      </trkpt>
      <trkpt lat="49.14303" lon="2.01979">
        <ele>154.1</ele>
        <time>2022-08-29T16:47:14Z</time>
      </trkpt>
      <trkpt lat="49.14313" lon="2.01934">
        <ele>153.7</ele>
      </trkpt>
      <trkpt lat="49.14313" lon="2.01874">
        <ele>151</ele>
        <time>2022-08-29T16:48:03Z</time>
      </trkpt>
      <trkpt lat="49.14301" lon="2.01805">
        <ele>150</ele>
        <time>2022-08-29T16:49:05Z</time>
      </trkpt>
      <trkpt lat="49.14313" lon="2.0175">
        <ele>148</ele>
        <time>2022-08-29T16:49:56Z</time>
      </trkpt>
      <trkpt lat="49.14341" lon="2.01684">
        <ele>148</ele>
        <time>2022-08-29T16:51:05Z</time>
      </trkpt>
      <trkpt lat="49.14511" lon="2.01432">
        <ele>158</ele>
        <time>2022-08-29T16:56:21Z</time>
      </trkpt>
      <trkpt lat="49.1458" lon="2.01245">
        <ele>162</ele>
        <time>2022-08-29T16:59:28Z</time>
      </trkpt>
      <trkpt lat="49.14602" lon="2.01161">
        <ele>167</ele>
        <time>2022-08-29T17:00:47Z</time>
      </trkpt>
      <trkpt lat="49.14635" lon="2.01012">
        <ele>174</ele>
        <time>2022-08-29T17:03:04Z</time>
      </trkpt>
      <trkpt lat="49.14655" lon="2.0097">
        <ele>174</ele>
        <time>2022-08-29T17:03:50Z</time>
      </trkpt>
      <trkpt lat="49.14672" lon="2.00935">
        <ele>174</ele>
        <time>2022-08-29T17:04:28Z</time>
      </trkpt>
      <trkpt lat="49.14681" lon="2.00913">
        <ele>174</ele>
        <time>2022-08-29T17:04:50Z</time>
      </trkpt>
      <trkpt lat="49.14697" lon="2.00861">
        <ele>175</ele>
        <time>2022-08-29T17:05:41Z</time>
      </trkpt>
      <trkpt lat="49.14732" lon="2.00789">
        <ele>175</ele>
        <time>2022-08-29T17:06:59Z</time>
      </trkpt>
      <trkpt lat="49.14751" lon="2.0073">
        <ele>174</ele>
        <time>2022-08-29T17:07:56Z</time>
      </trkpt>
      <trkpt lat="49.14803" lon="2.00577">
        <ele>169</ele>
        <time>2022-08-29T17:10:27Z</time>
      </trkpt>
      <trkpt lat="49.14814" lon="2.00446">
        <ele>166</ele>
        <time>2022-08-29T17:12:22Z</time>
      </trkpt>
      <trkpt lat="49.14823" lon="2.00393">
        <ele>165</ele>
        <time>2022-08-29T17:13:10Z</time>
      </trkpt>
      <trkpt lat="49.1483" lon="2.00305">
        <ele>166</ele>
        <time>2022-08-29T17:14:27Z</time>
      </trkpt>
      <trkpt lat="49.14815" lon="2.00143">
        <ele>171</ele>
        <time>2022-08-29T17:16:50Z</time>
      </trkpt>
      <trkpt lat="49.14818" lon="2.00099">
        <ele>172</ele>
        <time>2022-08-29T17:17:29Z</time>
      </trkpt>
      <trkpt lat="49.14874" lon="1.99939">
        <ele>172</ele>
        <time>2022-08-29T17:20:07Z</time>
      </trkpt>
      <trkpt lat="49.14899" lon="1.99833">
        <ele>171</ele>
        <time>2022-08-29T17:21:45Z</time>
      </trkpt>
      <trkpt lat="49.149" lon="1.99757">
        <ele>165</ele>
        <time>2022-08-29T17:22:52Z</time>
      </trkpt>
      <trkpt lat="49.14869" lon="1.99657">
        <ele>160</ele>
        <time>2022-08-29T17:24:28Z</time>
      </trkpt>
      <trkpt lat="49.14782" lon="1.99429">
        <ele>160</ele>
        <time>2022-08-29T17:28:19Z</time>
      </trkpt>
      <trkpt lat="49.1477" lon="1.99373">
        <ele>158</ele>
        <time>2022-08-29T17:29:10Z</time>
      </trkpt>
      <trkpt lat="49.14768" lon="1.99352">
        <ele>157</ele>
        <time>2022-08-29T17:29:29Z</time>
      </trkpt>
      <trkpt lat="49.1478" lon="1.99292">
        <ele>158</ele>
        <time>2022-08-29T17:30:24Z</time>
      </trkpt>
      <trkpt lat="49.148" lon="1.99235">
        <ele>159</ele>
        <time>2022-08-29T17:31:20Z</time>
      </trkpt>
      <trkpt lat="49.14808" lon="1.99159">
        <ele>160</ele>
        <time>2022-08-29T17:32:27Z</time>
      </trkpt>
      <trkpt lat="49.14791" lon="1.99146">
        <ele>157</ele>
        <time>2022-08-29T17:32:53Z</time>
      </trkpt>
      <trkpt lat="49.1477" lon="1.99133">
        <ele>153</ele>
        <time>2022-08-29T17:33:23Z</time>
      </trkpt>
      <trkpt lat="49.14754" lon="1.99099">
        <ele>149</ele>
        <time>2022-08-29T17:33:59Z</time>
      </trkpt>
      <trkpt lat="49.14711" lon="1.99032">
        <ele>143</ele>
        <time>2022-08-29T17:35:21Z</time>
      </trkpt>
      <trkpt lat="49.14629" lon="1.98903">
        <ele>132</ele>
        <time>2022-08-29T17:37:58Z</time>
      </trkpt>
      <trkpt lat="49.14616" lon="1.98851">
        <ele>130</ele>
        <time>2022-08-29T17:38:47Z</time>
      </trkpt>
      <trkpt lat="49.1454" lon="1.98715">
        <ele>124</ele>
        <time>2022-08-29T17:41:23Z</time>
      </trkpt>
      <trkpt lat="49.14527" lon="1.98704">
        <ele>123</ele>
        <time>2022-08-29T17:41:43Z</time>
      </trkpt>
      <trkpt lat="49.14501" lon="1.98617">
        <ele>122</ele>
        <time>2022-08-29T17:43:06Z</time>
      </trkpt>
      <trkpt lat="49.14485" lon="1.98519">
        <ele>121</ele>
        <time>2022-08-29T17:44:35Z</time>
      </trkpt>
      <trkpt lat="49.14536" lon="1.98486">
        <ele>121</ele>
        <time>2022-08-29T17:45:48Z</time>
      </trkpt>
      <trkpt lat="49.14544" lon="1.98471">
        <ele>120</ele>
        <time>2022-08-29T17:46:05Z</time>
      </trkpt>
      <trkpt lat="49.14568" lon="1.98468">
        <ele>120</ele>
        <time>2022-08-29T17:46:37Z</time>
      </trkpt>
      <trkpt lat="49.14578" lon="1.98457">
        <ele>120</ele>
        <time>2022-08-29T17:46:54Z</time>
      </trkpt>
      <trkpt lat="49.14626" lon="1.98363">
        <ele>118</ele>
        <time>2022-08-29T17:48:38Z</time>
      </trkpt>
      <trkpt lat="49.14696" lon="1.9819">
        <ele>118</ele>
        <time>2022-08-29T17:51:36Z</time>
      </trkpt>
      <trkpt lat="49.14717" lon="1.98133">
        <ele>119</ele>
        <time>2022-08-29T17:52:33Z</time>
      </trkpt>
      <trkpt lat="49.1473" lon="1.98119">
        <ele>120</ele>
        <time>2022-08-29T17:52:54Z</time>
      </trkpt>
      <trkpt lat="49.14642" lon="1.97853">
        <ele>112.8</ele>
        <time>2022-08-29T17:57:17Z</time>
      </trkpt>
      <trkpt lat="49.14624" lon="1.97761">
        <ele>110</ele>
        <time>2022-08-29T17:58:39Z</time>
      </trkpt>
      <trkpt lat="49.14558" lon="1.97807">
        <ele>109</ele>
        <time>2022-08-29T18:00:15Z</time>
      </trkpt>
      <trkpt lat="49.14555" lon="1.97785">
        <ele>109</ele>
        <time>2022-08-29T18:00:35Z</time>
      </trkpt>
      <trkpt lat="49.14546" lon="1.97619">
        <ele>107</ele>
        <time>2022-08-29T18:03:00Z</time>
      </trkpt>
      <trkpt lat="49.14543" lon="1.97502">
        <ele>105</ele>
        <time>2022-08-29T18:04:43Z</time>
      </trkpt>
      <trkpt lat="49.14547" lon="1.97463">
        <ele>105</ele>
        <time>2022-08-29T18:05:17Z</time>
      </trkpt>
      <trkpt lat="49.14551" lon="1.97436">
        <ele>105</ele>
        <time>2022-08-29T18:05:41Z</time>
      </trkpt>
      <trkpt lat="49.14566" lon="1.97371">
        <ele>103</ele>
        <time>2022-08-29T18:06:41Z</time>
      </trkpt>
      <trkpt lat="49.14581" lon="1.97282">
        <ele>102</ele>
        <time>2022-08-29T18:08:02Z</time>
      </trkpt>
      <trkpt lat="49.14592" lon="1.97276">
        <ele>102</ele>
        <time>2022-08-29T18:08:17Z</time>
      </trkpt>
      <trkpt lat="49.14598" lon="1.97249">
        <ele>101</ele>
        <time>2022-08-29T18:08:42Z</time>
      </trkpt>
      <trkpt lat="49.14601" lon="1.97198">
        <ele>100</ele>
        <time>2022-08-29T18:09:27Z</time>
      </trkpt>
      <trkpt lat="49.14598" lon="1.97136">
        <ele>99</ele>
        <time>2022-08-29T18:10:21Z</time>
      </trkpt>
      <trkpt lat="49.14601" lon="1.97072">
        <ele>99</ele>
        <time>2022-08-29T18:11:17Z</time>
      </trkpt>
      <trkpt lat="49.14594" lon="1.96979">
        <ele>99</ele>
        <time>2022-08-29T18:12:39Z</time>
      </trkpt>
      <trkpt lat="49.14592" lon="1.96895">
        <ele>98</ele>
        <time>2022-08-29T18:13:52Z</time>
      </trkpt>
      <trkpt lat="49.14577" lon="1.96872">
        <ele>99</ele>
        <time>2022-08-29T18:14:19Z</time>
      </trkpt>
      <trkpt lat="49.14576" lon="1.96816">
        <ele>99</ele>
        <time>2022-08-29T18:15:08Z</time>
      </trkpt>
      <trkpt lat="49.14621" lon="1.96676">
        <ele>96</ele>
        <time>2022-08-29T18:17:24Z</time>
      </trkpt>
      <trkpt lat="49.14607" lon="1.96672">
        <ele>96</ele>
        <time>2022-08-29T18:17:43Z</time>
      </trkpt>
      <trkpt lat="49.14624" lon="1.96405">
        <ele>94</ele>
        <time>2022-08-29T18:21:37Z</time>
      </trkpt>
      <trkpt lat="49.14616" lon="1.96397">
        <ele>94</ele>
        <time>2022-08-29T18:21:50Z</time>
      </trkpt>
      <trkpt lat="49.14576" lon="1.96419">
        <ele>96</ele>
        <time>2022-08-29T18:22:47Z</time>
      </trkpt>
      <trkpt lat="49.14525" lon="1.96428">
        <ele>101.2</ele>
        <time>2022-08-29T18:23:54Z</time>
      </trkpt>
      <trkpt lat="49.14513" lon="1.96267">
        <ele>100</ele>
        <time>2022-08-29T18:26:17Z</time>
      </trkpt>
      <trkpt lat="49.14491" lon="1.96106">
        <ele>99</ele>
        <time>2022-08-29T18:28:41Z</time>
      </trkpt>
      <trkpt lat="49.14326" lon="1.9597">
        <ele>101.2</ele>
      </trkpt>
      <trkpt lat="49.14136" lon="1.95822">
        <ele>100</ele>
        <time>2022-08-29T18:37:36Z</time>
      </trkpt>
      <trkpt lat="49.14057" lon="1.95772">
        <ele>102</ele>
        <time>2022-08-29T18:39:30Z</time>
      </trkpt>
      <trkpt lat="49.139" lon="1.95713">
        <ele>106</ele>
        <time>2022-08-29T18:43:05Z</time>
      </trkpt>
      <trkpt lat="49.13772" lon="1.95638">
        <ele>108</ele>
        <time>2022-08-29T18:46:08Z</time>
      </trkpt>
      <trkpt lat="49.1376" lon="1.95634">
        <ele>108</ele>
        <time>2022-08-29T18:46:25Z</time>
      </trkpt>
      <trkpt lat="49.13736" lon="1.95607">
        <ele>108</ele>
        <time>2022-08-29T18:47:05Z</time>
      </trkpt>
      <trkpt lat="49.13626" lon="1.95519">
        <ele>106</ele>
        <time>2022-08-29T18:49:50Z</time>
      </trkpt>
      <trkpt lat="49.13528" lon="1.95472">
        <ele>104</ele>
        <time>2022-08-29T18:52:07Z</time>
      </trkpt>
      <trkpt lat="49.13329" lon="1.95284">
        <ele>92</ele>
        <time>2022-08-29T18:57:19Z</time>
      </trkpt>
      <trkpt lat="49.133" lon="1.95352">
        <ele>94</ele>
        <time>2022-08-29T18:58:30Z</time>
      </trkpt>
      <trkpt lat="49.13263" lon="1.95558">
        <ele>99</ele>
        <time>2022-08-29T19:01:37Z</time>
      </trkpt>
      <trkpt lat="49.13253" lon="1.95614">
        <ele>100</ele>
        <time>2022-08-29T19:02:28Z</time>
      </trkpt>
      <trkpt lat="49.13192" lon="1.95806">
        <ele>101</ele>
        <time>2022-08-29T19:05:34Z</time>
      </trkpt>
      <trkpt lat="49.13137" lon="1.95908">
        <ele>101</ele>
        <time>2022-08-29T19:07:29Z</time>
      </trkpt>
      <trkpt lat="49.1303" lon="1.96056">
        <ele>96</ele>
        <time>2022-08-29T19:10:42Z</time>
      </trkpt>
      <trkpt lat="49.12867" lon="1.96306">
        <ele>91</ele>
        <time>2022-08-29T19:15:50Z</time>
      </trkpt>
      <trkpt lat="49.12844" lon="1.96621">
        <ele>96.8</ele>
        <time>2022-08-29T19:17:07Z</time>
      </trkpt>
      <trkpt lat="49.12784" lon="1.9684">
        <ele>104.4</ele>
        <time>2022-08-29T19:18:51Z</time>
      </trkpt>
      <trkpt lat="49.12732" lon="1.96983">
        <ele>114.1</ele>
        <time>2022-08-29T19:20:59Z</time>
      </trkpt>
      <trkpt lat="49.12697" lon="1.97038">
        <ele>117.6</ele>
        <time>2022-08-29T19:23:16Z</time>
      </trkpt>
      <trkpt lat="49.12674" lon="1.96841">
        <ele>110</ele>
      </trkpt>
      <trkpt lat="49.12645" lon="1.96712">
        <ele>106.4</ele>
      </trkpt>
      <trkpt lat="49.12631" lon="1.96495">
        <ele>102.7</ele>
      </trkpt>
      <trkpt lat="49.12628" lon="1.96298">
        <ele>95.8</ele>
      </trkpt>
      <trkpt lat="49.12626" lon="1.96256">
        <ele>94</ele>
      </trkpt>
      <trkpt lat="49.1263" lon="1.96097">
        <ele>87</ele>
        <time>2022-08-29T19:24:03Z</time>
      </trkpt>
      <trkpt lat="49.12612" lon="1.96095">
        <ele>87</ele>
        <time>2022-08-29T19:24:27Z</time>
      </trkpt>
      <trkpt lat="49.12589" lon="1.96059">
        <ele>86</ele>
        <time>2022-08-29T19:25:11Z</time>
      </trkpt>
      <trkpt lat="49.12535" lon="1.96024">
        <ele>92</ele>
        <time>2022-08-29T19:26:29Z</time>
      </trkpt>
      <trkpt lat="49.12473" lon="1.95919">
        <ele>91</ele>
        <time>2022-08-29T19:28:33Z</time>
      </trkpt>
      <trkpt lat="49.1244" lon="1.95884">
        <ele>92</ele>
        <time>2022-08-29T19:29:26Z</time>
      </trkpt>
      <trkpt lat="49.12417" lon="1.95867">
        <ele>93</ele>
        <time>2022-08-29T19:30:00Z</time>
      </trkpt>
      <trkpt lat="49.12379" lon="1.95863">
        <ele>94</ele>
        <time>2022-08-29T19:30:51Z</time>
      </trkpt>
      <trkpt lat="49.1235" lon="1.95871">
        <ele>95</ele>
        <time>2022-08-29T19:31:31Z</time>
      </trkpt>
      <trkpt lat="49.12317" lon="1.95902">
        <ele>96</ele>
        <time>2022-08-29T19:32:22Z</time>
      </trkpt>
      <trkpt lat="49.12231" lon="1.95974">
        <ele>96</ele>
        <time>2022-08-29T19:34:33Z</time>
      </trkpt>
      <trkpt lat="49.1217" lon="1.9608">
        <ele>87</ele>
        <time>2022-08-29T19:36:36Z</time>
      </trkpt>
      <trkpt lat="49.12122" lon="1.96166">
        <ele>79</ele>
        <time>2022-08-29T19:38:15Z</time>
      </trkpt>
      <trkpt lat="49.12084" lon="1.96243">
        <ele>73</ele>
        <time>2022-08-29T19:39:39Z</time>
      </trkpt>
      <trkpt lat="49.12067" lon="1.96304">
        <ele>72</ele>
        <time>2022-08-29T19:40:37Z</time>
      </trkpt>
      <trkpt lat="49.1206" lon="1.96339">
        <ele>72</ele>
        <time>2022-08-29T19:41:09Z</time>
      </trkpt>
      <trkpt lat="49.12056" lon="1.96444">
        <ele>73</ele>
        <time>2022-08-29T19:42:41Z</time>
      </trkpt>
      <trkpt lat="49.12061" lon="1.96505">
        <ele>73</ele>
        <time>2022-08-29T19:43:35Z</time>
      </trkpt>
      <trkpt lat="49.12024" lon="1.96535">
        <ele>76</ele>
        <time>2022-08-29T19:44:31Z</time>
      </trkpt>
      <trkpt lat="49.12002" lon="1.96533">
        <ele>77</ele>
        <time>2022-08-29T19:45:00Z</time>
      </trkpt>
      <trkpt lat="49.11907" lon="1.96427">
        <ele>84</ele>
        <time>2022-08-29T19:47:37Z</time>
      </trkpt>
      <trkpt lat="49.11841" lon="1.96432">
        <ele>87</ele>
        <time>2022-08-29T19:49:05Z</time>
      </trkpt>
      <trkpt lat="49.118" lon="1.96424">
        <ele>87</ele>
        <time>2022-08-29T19:50:00Z</time>
      </trkpt>
      <trkpt lat="49.11701" lon="1.96442">
        <ele>81</ele>
        <time>2022-08-29T19:52:13Z</time>
      </trkpt>
      <trkpt lat="49.11683" lon="1.96433">
        <ele>80</ele>
        <time>2022-08-29T19:52:39Z</time>
      </trkpt>
      <trkpt lat="49.11665" lon="1.96425">
        <ele>78</ele>
        <time>2022-08-29T19:53:04Z</time>
      </trkpt>
      <trkpt lat="49.11644" lon="1.96393">
        <ele>78</ele>
        <time>2022-08-29T19:53:43Z</time>
      </trkpt>
      <trkpt lat="49.11558" lon="1.96349">
        <ele>74</ele>
        <time>2022-08-29T19:55:44Z</time>
      </trkpt>
      <trkpt lat="49.1153" lon="1.96351">
        <ele>72</ele>
        <time>2022-08-29T19:56:22Z</time>
      </trkpt>
      <trkpt lat="49.11504" lon="1.96365">
        <ele>72</ele>
        <time>2022-08-29T19:56:58Z</time>
      </trkpt>
      <trkpt lat="49.11475" lon="1.96396">
        <ele>71</ele>
        <time>2022-08-29T19:57:46Z</time>
      </trkpt>
      <trkpt lat="49.11418" lon="1.96494">
        <ele>67</ele>
        <time>2022-08-29T19:59:40Z</time>
      </trkpt>
      <trkpt lat="49.11376" lon="1.96594">
        <ele>65</ele>
        <time>2022-08-29T20:01:24Z</time>
      </trkpt>
      <trkpt lat="49.11344" lon="1.96614">
        <ele>61</ele>
        <time>2022-08-29T20:02:10Z</time>
      </trkpt>
      <trkpt lat="49.11336" lon="1.96602">
        <ele>59</ele>
        <time>2022-08-29T20:02:25Z</time>
      </trkpt>
      <trkpt lat="49.11314" lon="1.96478">
        <ele>53</ele>
        <time>2022-08-29T20:04:17Z</time>
      </trkpt>
      <trkpt lat="49.11295" lon="1.96383">
        <ele>52</ele>
        <time>2022-08-29T20:05:44Z</time>
      </trkpt>
      <trkpt lat="49.11286" lon="1.96355">
        <ele>53</ele>
        <time>2022-08-29T20:06:11Z</time>
      </trkpt>
      <trkpt lat="49.11275" lon="1.96352">
        <ele>53</ele>
        <time>2022-08-29T20:06:26Z</time>
      </trkpt>
      <trkpt lat="49.11234" lon="1.9639">
        <ele>53</ele>
        <time>2022-08-29T20:07:30Z</time>
      </trkpt>
      <trkpt lat="49.11206" lon="1.96396">
        <ele>54</ele>
        <time>2022-08-29T20:08:08Z</time>
      </trkpt>
      <trkpt lat="49.11157" lon="1.96366">
        <ele>57</ele>
        <time>2022-08-29T20:09:18Z</time>
      </trkpt>
      <trkpt lat="49.11119" lon="1.96352">
        <ele>58</ele>
        <time>2022-08-29T20:10:11Z</time>
      </trkpt>
      <trkpt lat="49.11036" lon="1.96373">
        <ele>60</ele>
        <time>2022-08-29T20:12:03Z</time>
      </trkpt>
      <trkpt lat="49.10968" lon="1.9638">
        <ele>61</ele>
        <time>2022-08-29T20:13:34Z</time>
      </trkpt>
      <trkpt lat="49.10891" lon="1.96402">
        <ele>59</ele>
        <time>2022-08-29T20:15:18Z</time>
      </trkpt>
      <trkpt lat="49.10762" lon="1.96404">
        <ele>56</ele>
        <time>2022-08-29T20:18:10Z</time>
      </trkpt>
      <trkpt lat="49.10539" lon="1.96501">
        <ele>58</ele>
        <time>2022-08-29T20:23:20Z</time>
      </trkpt>
      <trkpt lat="49.10481" lon="1.96535">
        <ele>57</ele>
        <time>2022-08-29T20:24:43Z</time>
      </trkpt>
      <trkpt lat="49.10421" lon="1.96581">
        <ele>57</ele>
        <time>2022-08-29T20:26:12Z</time>
      </trkpt>
      <trkpt lat="49.10395" lon="1.96599">
        <ele>57</ele>
        <time>2022-08-29T20:26:50Z</time>
      </trkpt>
      <trkpt lat="49.1036" lon="1.9661">
        <ele>57</ele>
        <time>2022-08-29T20:27:38Z</time>
      </trkpt>
      <trkpt lat="49.10272" lon="1.96621">
        <ele>57</ele>
        <time>2022-08-29T20:29:36Z</time>
      </trkpt>
      <trkpt lat="49.10262" lon="1.96619">
        <ele>57</ele>
        <time>2022-08-29T20:29:49Z</time>
      </trkpt>
      <trkpt lat="49.10227" lon="1.96635">
        <ele>57</ele>
        <time>2022-08-29T20:30:38Z</time>
      </trkpt>
      <trkpt lat="49.10148" lon="1.96645">
        <ele>60</ele>
        <time>2022-08-29T20:32:24Z</time>
      </trkpt>
      <trkpt lat="49.1014" lon="1.96645">
        <ele>60</ele>
        <time>2022-08-29T20:32:35Z</time>
      </trkpt>
      <trkpt lat="49.10117" lon="1.96739">
        <ele>57</ele>
        <time>2022-08-29T20:34:02Z</time>
      </trkpt>
      <trkpt lat="49.10101" lon="1.96807">
        <ele>55</ele>
        <time>2022-08-29T20:35:05Z</time>
      </trkpt>
      <trkpt lat="49.10072" lon="1.96886">
        <ele>53</ele>
        <time>2022-08-29T20:36:25Z</time>
      </trkpt>
      <trkpt lat="49.10063" lon="1.96924">
        <ele>52</ele>
        <time>2022-08-29T20:37:00Z</time>
      </trkpt>
      <trkpt lat="49.10071" lon="1.96945">
        <ele>51</ele>
        <time>2022-08-29T20:37:21Z</time>
      </trkpt>
      <trkpt lat="49.1009" lon="1.9697">
        <ele>50</ele>
        <time>2022-08-29T20:37:55Z</time>
      </trkpt>
      <trkpt lat="49.101" lon="1.97018">
        <ele>49</ele>
        <time>2022-08-29T20:38:39Z</time>
      </trkpt>
      <trkpt lat="49.09961" lon="1.97087">
        <ele>50</ele>
        <time>2022-08-29T20:41:54Z</time>
      </trkpt>
    </trkseg>
  </trk>
</gpx>